sensor_id;sensor_type;location;lat;lon;timestamp;P1;durP1;ratioP1;P2;durP2;ratioP2
51949;SDS011;37974;53.218;6.640;2024-03-02T00:02:19;380.95;;;357.33;;
51949;SDS011;37974;53.218;6.640;2024-03-02T00:04:45;354.30;;;332.20;;
51949;SDS011;37974;53.218;6.640;2024-03-02T00:07:10;408.75;;;382.80;;
51949;SDS011;37974;53.218;6.640;2024-03-02T00:09:39;360.63;;;338.65;;
51949;SDS011;37974;53.218;6.640;2024-03-02T00:12:05;355.25;;;333.67;;
51949;SDS011;37974;53.218;6.640;2024-03-02T00:14:31;364.90;;;342.65;;
51949;SDS011;37974;53.218;6.640;2024-03-02T00:16:57;353.05;;;331.77;;
51949;SDS011;37974;53.218;6.640;2024-03-02T00:19:24;395.67;;;370.90;;
51949;SDS011;37974;53.218;6.640;2024-03-02T00:21:50;439.05;;;411.05;;
51949;SDS011;37974;53.218;6.640;2024-03-02T00:24:21;353.85;;;332.60;;
51949;SDS011;37974;53.218;6.640;2024-03-02T00:26:55;383.08;;;359.15;;
51949;SDS011;37974;53.218;6.640;2024-03-02T00:29:21;355.42;;;333.75;;
51949;SDS011;37974;53.218;6.640;2024-03-02T00:31:47;404.92;;;379.48;;
51949;SDS011;37974;53.218;6.640;2024-03-02T00:34:13;429.33;;;401.88;;
51949;SDS011;37974;53.218;6.640;2024-03-02T00:36:41;377.58;;;354.00;;
51949;SDS011;37974;53.218;6.640;2024-03-02T00:39:07;356.20;;;334.35;;
51949;SDS011;37974;53.218;6.640;2024-03-02T00:41:34;341.77;;;321.23;;
51949;SDS011;37974;53.218;6.640;2024-03-02T00:44:01;435.38;;;407.80;;
51949;SDS011;37974;53.218;6.640;2024-03-02T00:46:35;398.45;;;373.55;;
51949;SDS011;37974;53.218;6.640;2024-03-02T00:49:02;435.95;;;408.10;;
51949;SDS011;37974;53.218;6.640;2024-03-02T00:51:31;419.30;;;392.88;;
51949;SDS011;37974;53.218;6.640;2024-03-02T00:53:59;407.83;;;382.50;;
51949;SDS011;37974;53.218;6.640;2024-03-02T00:56:29;340.73;;;320.25;;
51949;SDS011;37974;53.218;6.640;2024-03-02T00:58:55;389.38;;;365.35;;
51949;SDS011;37974;53.218;6.640;2024-03-02T01:01:21;418.63;;;392.58;;
51949;SDS011;37974;53.218;6.640;2024-03-02T01:03:47;387.60;;;363.88;;
51949;SDS011;37974;53.218;6.640;2024-03-02T01:06:14;397.08;;;372.20;;
51949;SDS011;37974;53.218;6.640;2024-03-02T01:08:40;446.73;;;417.92;;
51949;SDS011;37974;53.218;6.640;2024-03-02T01:11:07;349.42;;;327.98;;
51949;SDS011;37974;53.218;6.640;2024-03-02T01:13:33;352.45;;;330.92;;
51949;SDS011;37974;53.218;6.640;2024-03-02T01:15:59;419.85;;;393.33;;
51949;SDS011;37974;53.218;6.640;2024-03-02T01:18:25;417.05;;;389.98;;
51949;SDS011;37974;53.218;6.640;2024-03-02T01:20:51;347.17;;;325.98;;
51949;SDS011;37974;53.218;6.640;2024-03-02T01:23:18;355.75;;;334.02;;
51949;SDS011;37974;53.218;6.640;2024-03-02T01:25:45;383.38;;;359.75;;
51949;SDS011;37974;53.218;6.640;2024-03-02T01:28:12;354.33;;;332.75;;
51949;SDS011;37974;53.218;6.640;2024-03-02T01:30:38;390.90;;;366.63;;
51949;SDS011;37974;53.218;6.640;2024-03-02T01:33:03;404.27;;;379.05;;
51949;SDS011;37974;53.218;6.640;2024-03-02T01:35:30;366.42;;;343.80;;
51949;SDS011;37974;53.218;6.640;2024-03-02T01:37:56;362.23;;;340.17;;
51949;SDS011;37974;53.218;6.640;2024-03-02T01:40:22;346.98;;;326.00;;
51949;SDS011;37974;53.218;6.640;2024-03-02T01:42:51;410.88;;;385.30;;
51949;SDS011;37974;53.218;6.640;2024-03-02T01:45:19;393.88;;;369.65;;
51949;SDS011;37974;53.218;6.640;2024-03-02T01:47:45;337.58;;;316.95;;
51949;SDS011;37974;53.218;6.640;2024-03-02T01:50:11;357.75;;;336.00;;
51949;SDS011;37974;53.218;6.640;2024-03-02T01:52:37;386.33;;;362.33;;
51949;SDS011;37974;53.218;6.640;2024-03-02T01:55:03;377.08;;;353.77;;
51949;SDS011;37974;53.218;6.640;2024-03-02T01:57:29;348.92;;;327.83;;
51949;SDS011;37974;53.218;6.640;2024-03-02T01:59:56;368.75;;;346.15;;
51949;SDS011;37974;53.218;6.640;2024-03-02T02:02:21;359.05;;;337.10;;
51949;SDS011;37974;53.218;6.640;2024-03-02T02:04:47;354.20;;;332.45;;
51949;SDS011;37974;53.218;6.640;2024-03-02T02:07:13;390.42;;;366.02;;
51949;SDS011;37974;53.218;6.640;2024-03-02T02:09:40;353.23;;;331.70;;
51949;SDS011;37974;53.218;6.640;2024-03-02T02:12:07;397.08;;;372.13;;
51949;SDS011;37974;53.218;6.640;2024-03-02T02:14:33;347.63;;;326.33;;
51949;SDS011;37974;53.218;6.640;2024-03-02T02:16:59;393.25;;;368.83;;
51949;SDS011;37974;53.218;6.640;2024-03-02T02:19:25;448.85;;;419.42;;
51949;SDS011;37974;53.218;6.640;2024-03-02T02:21:51;345.83;;;324.63;;
51949;SDS011;37974;53.218;6.640;2024-03-02T02:24:16;369.77;;;346.95;;
51949;SDS011;37974;53.218;6.640;2024-03-02T02:26:42;411.83;;;385.92;;
51949;SDS011;37974;53.218;6.640;2024-03-02T02:29:08;357.98;;;336.27;;
51949;SDS011;37974;53.218;6.640;2024-03-02T02:31:38;350.75;;;329.25;;
51949;SDS011;37974;53.218;6.640;2024-03-02T02:34:05;347.45;;;326.40;;
51949;SDS011;37974;53.218;6.640;2024-03-02T02:36:33;408.63;;;382.65;;
51949;SDS011;37974;53.218;6.640;2024-03-02T02:39:02;356.95;;;335.20;;
51949;SDS011;37974;53.218;6.640;2024-03-02T02:41:29;383.08;;;359.33;;
51949;SDS011;37974;53.218;6.640;2024-03-02T02:43:55;385.00;;;361.30;;
51949;SDS011;37974;53.218;6.640;2024-03-02T02:46:21;347.48;;;326.23;;
51949;SDS011;37974;53.218;6.640;2024-03-02T02:48:46;393.63;;;369.02;;
51949;SDS011;37974;53.218;6.640;2024-03-02T02:51:12;382.33;;;358.95;;
51949;SDS011;37974;53.218;6.640;2024-03-02T02:53:38;397.48;;;372.67;;
51949;SDS011;37974;53.218;6.640;2024-03-02T02:56:06;370.70;;;348.20;;
51949;SDS011;37974;53.218;6.640;2024-03-02T02:58:32;401.27;;;376.30;;
51949;SDS011;37974;53.218;6.640;2024-03-02T03:00:57;417.83;;;391.45;;
51949;SDS011;37974;53.218;6.640;2024-03-02T03:03:23;362.83;;;340.55;;
51949;SDS011;37974;53.218;6.640;2024-03-02T03:05:49;367.60;;;345.38;;
51949;SDS011;37974;53.218;6.640;2024-03-02T03:08:14;371.20;;;348.17;;
51949;SDS011;37974;53.218;6.640;2024-03-02T03:10:41;393.08;;;368.80;;
51949;SDS011;37974;53.218;6.640;2024-03-02T03:13:07;394.73;;;370.15;;
51949;SDS011;37974;53.218;6.640;2024-03-02T03:15:35;354.35;;;332.88;;
51949;SDS011;37974;53.218;6.640;2024-03-02T03:18:01;406.27;;;380.52;;
51949;SDS011;37974;53.218;6.640;2024-03-02T03:20:29;392.83;;;368.30;;
51949;SDS011;37974;53.218;6.640;2024-03-02T03:22:55;382.38;;;358.65;;
51949;SDS011;37974;53.218;6.640;2024-03-02T03:25:21;437.05;;;409.17;;
51949;SDS011;37974;53.218;6.640;2024-03-02T03:27:47;364.52;;;341.88;;
51949;SDS011;37974;53.218;6.640;2024-03-02T03:30:12;379.35;;;355.92;;
51949;SDS011;37974;53.218;6.640;2024-03-02T03:32:38;368.27;;;345.88;;
51949;SDS011;37974;53.218;6.640;2024-03-02T03:35:04;365.55;;;343.10;;
51949;SDS011;37974;53.218;6.640;2024-03-02T03:37:31;364.58;;;342.35;;
51949;SDS011;37974;53.218;6.640;2024-03-02T03:39:59;357.05;;;335.20;;
51949;SDS011;37974;53.218;6.640;2024-03-02T03:42:26;424.65;;;397.98;;
51949;SDS011;37974;53.218;6.640;2024-03-02T03:44:52;408.23;;;382.40;;
51949;SDS011;37974;53.218;6.640;2024-03-02T03:47:17;422.00;;;394.63;;
51949;SDS011;37974;53.218;6.640;2024-03-02T03:49:43;401.98;;;376.98;;
51949;SDS011;37974;53.218;6.640;2024-03-02T03:52:09;362.90;;;340.67;;
51949;SDS011;37974;53.218;6.640;2024-03-02T03:54:34;348.17;;;327.23;;
51949;SDS011;37974;53.218;6.640;2024-03-02T03:57:02;417.17;;;390.42;;
51949;SDS011;37974;53.218;6.640;2024-03-02T03:59:28;351.55;;;330.17;;
51949;SDS011;37974;53.218;6.640;2024-03-02T04:01:53;359.60;;;337.67;;
51949;SDS011;37974;53.218;6.640;2024-03-02T04:04:19;376.65;;;353.40;;
51949;SDS011;37974;53.218;6.640;2024-03-02T04:06:45;359.15;;;337.27;;
51949;SDS011;37974;53.218;6.640;2024-03-02T04:09:10;400.85;;;375.80;;
51949;SDS011;37974;53.218;6.640;2024-03-02T04:11:36;371.13;;;348.27;;
51949;SDS011;37974;53.218;6.640;2024-03-02T04:14:02;365.92;;;343.30;;
51949;SDS011;37974;53.218;6.640;2024-03-02T04:16:27;397.50;;;372.38;;
51949;SDS011;37974;53.218;6.640;2024-03-02T04:18:54;361.45;;;339.77;;
51949;SDS011;37974;53.218;6.640;2024-03-02T04:21:19;370.85;;;348.30;;
51949;SDS011;37974;53.218;6.640;2024-03-02T04:23:45;372.20;;;349.08;;
51949;SDS011;37974;53.218;6.640;2024-03-02T04:26:11;400.85;;;375.77;;
51949;SDS011;37974;53.218;6.640;2024-03-02T04:28:36;400.42;;;375.45;;
51949;SDS011;37974;53.218;6.640;2024-03-02T04:31:02;421.67;;;395.20;;
51949;SDS011;37974;53.218;6.640;2024-03-02T04:33:28;409.33;;;383.73;;
51949;SDS011;37974;53.218;6.640;2024-03-02T04:35:54;415.80;;;389.55;;
51949;SDS011;37974;53.218;6.640;2024-03-02T04:38:20;383.17;;;359.73;;
51949;SDS011;37974;53.218;6.640;2024-03-02T04:40:45;360.65;;;338.70;;
51949;SDS011;37974;53.218;6.640;2024-03-02T04:43:11;401.13;;;376.00;;
51949;SDS011;37974;53.218;6.640;2024-03-02T04:45:40;411.13;;;385.45;;
51949;SDS011;37974;53.218;6.640;2024-03-02T04:48:06;373.15;;;350.52;;
51949;SDS011;37974;53.218;6.640;2024-03-02T04:50:32;371.10;;;348.63;;
51949;SDS011;37974;53.218;6.640;2024-03-02T04:52:57;365.23;;;342.90;;
51949;SDS011;37974;53.218;6.640;2024-03-02T04:55:23;393.33;;;369.05;;
51949;SDS011;37974;53.218;6.640;2024-03-02T04:58:10;403.55;;;378.23;;
51949;SDS011;37974;53.218;6.640;2024-03-02T05:00:35;406.73;;;381.23;;
51949;SDS011;37974;53.218;6.640;2024-03-02T05:03:02;407.60;;;382.13;;
51949;SDS011;37974;53.218;6.640;2024-03-02T05:05:28;407.80;;;381.98;;
51949;SDS011;37974;53.218;6.640;2024-03-02T05:07:54;368.17;;;345.23;;
51949;SDS011;37974;53.218;6.640;2024-03-02T05:10:20;368.55;;;346.10;;
51949;SDS011;37974;53.218;6.640;2024-03-02T05:12:45;408.42;;;382.60;;
51949;SDS011;37974;53.218;6.640;2024-03-02T05:15:12;423.33;;;396.73;;
51949;SDS011;37974;53.218;6.640;2024-03-02T05:17:39;380.52;;;357.23;;
51949;SDS011;37974;53.218;6.640;2024-03-02T05:20:07;409.95;;;384.08;;
51949;SDS011;37974;53.218;6.640;2024-03-02T05:22:33;362.60;;;340.48;;
51949;SDS011;37974;53.218;6.640;2024-03-02T05:25:00;390.63;;;366.77;;
51949;SDS011;37974;53.218;6.640;2024-03-02T05:27:26;433.10;;;405.50;;
51949;SDS011;37974;53.218;6.640;2024-03-02T05:29:52;419.77;;;393.10;;
51949;SDS011;37974;53.218;6.640;2024-03-02T05:32:18;392.20;;;368.08;;
51949;SDS011;37974;53.218;6.640;2024-03-02T05:34:44;380.42;;;356.98;;
51949;SDS011;37974;53.218;6.640;2024-03-02T05:37:09;356.25;;;334.35;;
51949;SDS011;37974;53.218;6.640;2024-03-02T05:39:35;403.73;;;378.33;;
51949;SDS011;37974;53.218;6.640;2024-03-02T05:42:01;332.25;;;312.38;;
51949;SDS011;37974;53.218;6.640;2024-03-02T05:44:27;347.48;;;326.50;;
51949;SDS011;37974;53.218;6.640;2024-03-02T05:46:52;389.40;;;365.45;;
51949;SDS011;37974;53.218;6.640;2024-03-02T05:49:18;382.13;;;358.50;;
51949;SDS011;37974;53.218;6.640;2024-03-02T05:51:44;385.35;;;361.55;;
51949;SDS011;37974;53.218;6.640;2024-03-02T05:54:10;377.33;;;354.20;;
51949;SDS011;37974;53.218;6.640;2024-03-02T05:56:35;353.27;;;331.98;;
51949;SDS011;37974;53.218;6.640;2024-03-02T05:59:01;349.98;;;328.85;;
51949;SDS011;37974;53.218;6.640;2024-03-02T06:01:34;365.15;;;343.00;;
51949;SDS011;37974;53.218;6.640;2024-03-02T06:03:59;365.00;;;342.70;;
51949;SDS011;37974;53.218;6.640;2024-03-02T06:06:25;361.33;;;339.38;;
51949;SDS011;37974;53.218;6.640;2024-03-02T06:08:51;380.88;;;357.40;;
51949;SDS011;37974;53.218;6.640;2024-03-02T06:11:18;389.98;;;365.98;;
51949;SDS011;37974;53.218;6.640;2024-03-02T06:13:45;379.30;;;355.95;;
51949;SDS011;37974;53.218;6.640;2024-03-02T06:16:10;385.15;;;361.25;;
51949;SDS011;37974;53.218;6.640;2024-03-02T06:18:36;395.08;;;370.67;;
51949;SDS011;37974;53.218;6.640;2024-03-02T06:21:02;363.65;;;341.55;;
51949;SDS011;37974;53.218;6.640;2024-03-02T06:23:28;395.92;;;371.23;;
51949;SDS011;37974;53.218;6.640;2024-03-02T06:25:54;355.73;;;334.13;;
51949;SDS011;37974;53.218;6.640;2024-03-02T06:28:20;389.00;;;364.88;;
51949;SDS011;37974;53.218;6.640;2024-03-02T06:30:46;394.73;;;370.25;;
51949;SDS011;37974;53.218;6.640;2024-03-02T06:33:11;385.45;;;361.77;;
51949;SDS011;37974;53.218;6.640;2024-03-02T06:35:37;354.02;;;332.38;;
51949;SDS011;37974;53.218;6.640;2024-03-02T06:38:04;377.25;;;353.60;;
51949;SDS011;37974;53.218;6.640;2024-03-02T06:40:29;343.48;;;322.63;;
51949;SDS011;37974;53.218;6.640;2024-03-02T06:42:55;382.08;;;358.50;;
51949;SDS011;37974;53.218;6.640;2024-03-02T06:45:21;367.15;;;344.85;;
51949;SDS011;37974;53.218;6.640;2024-03-02T06:47:46;372.10;;;348.98;;
51949;SDS011;37974;53.218;6.640;2024-03-02T06:50:12;369.90;;;347.75;;
51949;SDS011;37974;53.218;6.640;2024-03-02T06:52:38;364.08;;;341.92;;
51949;SDS011;37974;53.218;6.640;2024-03-02T06:55:04;335.83;;;315.33;;
51949;SDS011;37974;53.218;6.640;2024-03-02T06:57:30;329.50;;;309.20;;
51949;SDS011;37974;53.218;6.640;2024-03-02T06:59:56;358.92;;;336.05;;
51949;SDS011;37974;53.218;6.640;2024-03-02T07:02:24;327.98;;;308.40;;
51949;SDS011;37974;53.218;6.640;2024-03-02T07:04:52;355.95;;;334.17;;
51949;SDS011;37974;53.218;6.640;2024-03-02T07:07:18;332.38;;;312.42;;
51949;SDS011;37974;53.218;6.640;2024-03-02T07:09:44;361.13;;;339.00;;
51949;SDS011;37974;53.218;6.640;2024-03-02T07:12:10;333.60;;;313.65;;
51949;SDS011;37974;53.218;6.640;2024-03-02T07:14:36;342.27;;;321.55;;
51949;SDS011;37974;53.218;6.640;2024-03-02T07:17:20;365.23;;;342.02;;
51949;SDS011;37974;53.218;6.640;2024-03-02T07:19:46;348.02;;;326.88;;
51949;SDS011;37974;53.218;6.640;2024-03-02T07:22:12;359.50;;;337.48;;
51949;SDS011;37974;53.218;6.640;2024-03-02T07:24:41;401.88;;;376.92;;
51949;SDS011;37974;53.218;6.640;2024-03-02T07:27:08;377.67;;;354.38;;
51949;SDS011;37974;53.218;6.640;2024-03-02T07:29:35;396.25;;;371.88;;
51949;SDS011;37974;53.218;6.640;2024-03-02T07:32:01;380.15;;;356.88;;
51949;SDS011;37974;53.218;6.640;2024-03-02T07:34:27;367.42;;;345.23;;
51949;SDS011;37974;53.218;6.640;2024-03-02T07:36:53;392.05;;;367.55;;
51949;SDS011;37974;53.218;6.640;2024-03-02T07:39:19;399.10;;;374.60;;
51949;SDS011;37974;53.218;6.640;2024-03-02T07:41:46;382.90;;;359.52;;
51949;SDS011;37974;53.218;6.640;2024-03-02T07:44:12;390.70;;;366.58;;
51949;SDS011;37974;53.218;6.640;2024-03-02T07:46:43;380.20;;;357.02;;
51949;SDS011;37974;53.218;6.640;2024-03-02T07:49:09;381.65;;;358.10;;
51949;SDS011;37974;53.218;6.640;2024-03-02T07:51:35;379.48;;;355.95;;
51949;SDS011;37974;53.218;6.640;2024-03-02T07:54:01;350.65;;;329.13;;
51949;SDS011;37974;53.218;6.640;2024-03-02T07:56:27;333.20;;;313.08;;
51949;SDS011;37974;53.218;6.640;2024-03-02T07:58:53;360.95;;;339.02;;
51949;SDS011;37974;53.218;6.640;2024-03-02T08:01:19;339.10;;;318.77;;
51949;SDS011;37974;53.218;6.640;2024-03-02T08:03:45;355.80;;;334.15;;
51949;SDS011;37974;53.218;6.640;2024-03-02T08:06:17;351.27;;;329.90;;
51949;SDS011;37974;53.218;6.640;2024-03-02T08:08:46;332.83;;;313.05;;
51949;SDS011;37974;53.218;6.640;2024-03-02T08:11:12;360.45;;;338.25;;
51949;SDS011;37974;53.218;6.640;2024-03-02T08:13:38;367.65;;;345.17;;
51949;SDS011;37974;53.218;6.640;2024-03-02T08:16:04;333.15;;;313.02;;
51949;SDS011;37974;53.218;6.640;2024-03-02T08:18:32;342.15;;;321.23;;
51949;SDS011;37974;53.218;6.640;2024-03-02T08:20:59;341.40;;;320.98;;
51949;SDS011;37974;53.218;6.640;2024-03-02T08:23:25;331.58;;;311.25;;
51949;SDS011;37974;53.218;6.640;2024-03-02T08:25:51;332.75;;;312.88;;
51949;SDS011;37974;53.218;6.640;2024-03-02T08:28:17;389.02;;;365.17;;
51949;SDS011;37974;53.218;6.640;2024-03-02T08:30:42;341.15;;;320.55;;
51949;SDS011;37974;53.218;6.640;2024-03-02T08:33:08;373.10;;;350.38;;
51949;SDS011;37974;53.218;6.640;2024-03-02T08:35:34;338.63;;;318.23;;
51949;SDS011;37974;53.218;6.640;2024-03-02T08:38:02;329.98;;;310.33;;
51949;SDS011;37974;53.218;6.640;2024-03-02T08:40:29;366.52;;;343.75;;
51949;SDS011;37974;53.218;6.640;2024-03-02T08:42:55;342.73;;;322.05;;
51949;SDS011;37974;53.218;6.640;2024-03-02T08:45:21;331.30;;;311.63;;
51949;SDS011;37974;53.218;6.640;2024-03-02T08:47:46;325.90;;;306.48;;
51949;SDS011;37974;53.218;6.640;2024-03-02T08:50:13;315.33;;;296.63;;
51949;SDS011;37974;53.218;6.640;2024-03-02T08:52:39;344.10;;;323.25;;
51949;SDS011;37974;53.218;6.640;2024-03-02T08:55:05;347.02;;;325.92;;
51949;SDS011;37974;53.218;6.640;2024-03-02T08:57:32;347.95;;;326.85;;
51949;SDS011;37974;53.218;6.640;2024-03-02T08:59:58;347.88;;;326.90;;
51949;SDS011;37974;53.218;6.640;2024-03-02T09:02:25;331.98;;;312.15;;
51949;SDS011;37974;53.218;6.640;2024-03-02T09:04:50;289.55;;;272.55;;
51949;SDS011;37974;53.218;6.640;2024-03-02T09:07:17;284.00;;;267.25;;
51949;SDS011;37974;53.218;6.640;2024-03-02T09:09:42;286.20;;;269.38;;
51949;SDS011;37974;53.218;6.640;2024-03-02T09:12:08;282.27;;;265.80;;
51949;SDS011;37974;53.218;6.640;2024-03-02T09:14:34;322.17;;;302.98;;
51949;SDS011;37974;53.218;6.640;2024-03-02T09:17:01;287.75;;;270.77;;
51949;SDS011;37974;53.218;6.640;2024-03-02T09:19:28;328.75;;;309.23;;
51949;SDS011;37974;53.218;6.640;2024-03-02T09:21:54;339.70;;;319.20;;
51949;SDS011;37974;53.218;6.640;2024-03-02T09:24:21;324.95;;;305.10;;
51949;SDS011;37974;53.218;6.640;2024-03-02T09:26:47;303.60;;;285.67;;
51949;SDS011;37974;53.218;6.640;2024-03-02T09:29:13;320.20;;;301.02;;
51949;SDS011;37974;53.218;6.640;2024-03-02T09:31:39;345.60;;;324.95;;
51949;SDS011;37974;53.218;6.640;2024-03-02T09:34:06;308.02;;;289.75;;
51949;SDS011;37974;53.218;6.640;2024-03-02T09:36:32;313.65;;;294.95;;
51949;SDS011;37974;53.218;6.640;2024-03-02T09:38:58;354.13;;;331.95;;
51949;SDS011;37974;53.218;6.640;2024-03-02T09:41:24;323.50;;;303.52;;
51949;SDS011;37974;53.218;6.640;2024-03-02T09:43:50;337.73;;;317.27;;
51949;SDS011;37974;53.218;6.640;2024-03-02T09:46:16;347.80;;;326.73;;
51949;SDS011;37974;53.218;6.640;2024-03-02T09:48:44;325.10;;;305.27;;
51949;SDS011;37974;53.218;6.640;2024-03-02T09:51:10;317.92;;;298.85;;
51949;SDS011;37974;53.218;6.640;2024-03-02T09:53:36;342.88;;;322.00;;
51949;SDS011;37974;53.218;6.640;2024-03-02T09:56:03;317.30;;;298.20;;
51949;SDS011;37974;53.218;6.640;2024-03-02T09:58:30;353.42;;;331.92;;
51949;SDS011;37974;53.218;6.640;2024-03-02T10:00:56;342.90;;;321.90;;
51949;SDS011;37974;53.218;6.640;2024-03-02T10:03:23;381.42;;;357.80;;
51949;SDS011;37974;53.218;6.640;2024-03-02T10:05:50;344.55;;;323.63;;
51949;SDS011;37974;53.218;6.640;2024-03-02T10:08:16;356.70;;;335.05;;
51949;SDS011;37974;53.218;6.640;2024-03-02T10:10:42;385.58;;;361.63;;
51949;SDS011;37974;53.218;6.640;2024-03-02T10:13:09;385.75;;;361.65;;
51949;SDS011;37974;53.218;6.640;2024-03-02T10:15:37;335.90;;;315.27;;
51949;SDS011;37974;53.218;6.640;2024-03-02T10:18:04;341.10;;;320.15;;
51949;SDS011;37974;53.218;6.640;2024-03-02T10:20:30;339.45;;;318.65;;
51949;SDS011;37974;53.218;6.640;2024-03-02T10:23:09;351.83;;;330.38;;
51949;SDS011;37974;53.218;6.640;2024-03-02T10:25:36;356.38;;;334.60;;
51949;SDS011;37974;53.218;6.640;2024-03-02T10:28:02;357.52;;;335.65;;
51949;SDS011;37974;53.218;6.640;2024-03-02T10:30:31;321.58;;;302.33;;
51949;SDS011;37974;53.218;6.640;2024-03-02T10:32:58;380.27;;;356.63;;
51949;SDS011;37974;53.218;6.640;2024-03-02T10:35:23;360.85;;;338.33;;
51949;SDS011;37974;53.218;6.640;2024-03-02T10:37:51;357.88;;;335.35;;
51949;SDS011;37974;53.218;6.640;2024-03-02T10:40:17;376.67;;;353.17;;
51949;SDS011;37974;53.218;6.640;2024-03-02T10:42:43;350.23;;;328.77;;
51949;SDS011;37974;53.218;6.640;2024-03-02T10:45:10;340.40;;;319.60;;
51949;SDS011;37974;53.218;6.640;2024-03-02T10:47:38;380.38;;;356.65;;
51949;SDS011;37974;53.218;6.640;2024-03-02T10:50:05;387.88;;;363.73;;
51949;SDS011;37974;53.218;6.640;2024-03-02T10:52:34;312.48;;;293.65;;
51949;SDS011;37974;53.218;6.640;2024-03-02T10:55:00;364.55;;;342.00;;
51949;SDS011;37974;53.218;6.640;2024-03-02T10:57:26;359.30;;;336.77;;
51949;SDS011;37974;53.218;6.640;2024-03-02T11:00:03;394.88;;;369.92;;
51949;SDS011;37974;53.218;6.640;2024-03-02T11:02:30;334.33;;;313.95;;
51949;SDS011;37974;53.218;6.640;2024-03-02T11:04:57;365.83;;;343.23;;
51949;SDS011;37974;53.218;6.640;2024-03-02T11:07:25;238.98;;;224.40;;
51949;SDS011;37974;53.218;6.640;2024-03-02T11:09:56;293.33;;;275.83;;
51949;SDS011;37974;53.218;6.640;2024-03-02T11:12:29;254.35;;;239.27;;
51949;SDS011;37974;53.218;6.640;2024-03-02T11:14:57;254.70;;;239.90;;
51949;SDS011;37974;53.218;6.640;2024-03-02T11:17:24;271.75;;;255.65;;
51949;SDS011;37974;53.218;6.640;2024-03-02T11:19:50;267.65;;;251.77;;
51949;SDS011;37974;53.218;6.640;2024-03-02T11:22:16;300.83;;;282.95;;
51949;SDS011;37974;53.218;6.640;2024-03-02T11:24:48;231.70;;;217.98;;
51949;SDS011;37974;53.218;6.640;2024-03-02T11:27:15;308.23;;;289.88;;
51949;SDS011;37974;53.218;6.640;2024-03-02T11:33:03;264.95;;;249.40;;
51949;SDS011;37974;53.218;6.640;2024-03-02T11:35:34;274.58;;;258.30;;
51949;SDS011;37974;53.218;6.640;2024-03-02T11:38:01;245.00;;;230.40;;
51949;SDS011;37974;53.218;6.640;2024-03-02T11:40:28;225.52;;;212.45;;
51949;SDS011;37974;53.218;6.640;2024-03-02T11:42:54;252.82;;;238.23;;
51949;SDS011;37974;53.218;6.640;2024-03-02T11:45:23;227.40;;;214.05;;
51949;SDS011;37974;53.218;6.640;2024-03-02T11:47:51;282.10;;;265.05;;
51949;SDS011;37974;53.218;6.640;2024-03-02T11:50:29;380.48;;;356.67;;
51949;SDS011;37974;53.218;6.640;2024-03-02T11:52:55;335.08;;;314.67;;
51949;SDS011;37974;53.218;6.640;2024-03-02T11:55:23;338.27;;;317.90;;
51949;SDS011;37974;53.218;6.640;2024-03-02T11:57:51;288.45;;;271.15;;
51949;SDS011;37974;53.218;6.640;2024-03-02T12:00:18;368.73;;;345.42;;
51949;SDS011;37974;53.218;6.640;2024-03-02T12:02:45;343.60;;;322.40;;
51949;SDS011;37974;53.218;6.640;2024-03-02T12:05:14;417.58;;;390.75;;
51949;SDS011;37974;53.218;6.640;2024-03-02T12:07:42;348.77;;;327.52;;
51949;SDS011;37974;53.218;6.640;2024-03-02T12:10:08;344.50;;;322.98;;
51949;SDS011;37974;53.218;6.640;2024-03-02T12:12:34;346.75;;;325.48;;
51949;SDS011;37974;53.218;6.640;2024-03-02T12:15:00;375.25;;;351.38;;
51949;SDS011;37974;53.218;6.640;2024-03-02T12:17:26;339.45;;;318.38;;
51949;SDS011;37974;53.218;6.640;2024-03-02T12:19:51;336.77;;;316.30;;
51949;SDS011;37974;53.218;6.640;2024-03-02T12:22:18;282.30;;;265.50;;
51949;SDS011;37974;53.218;6.640;2024-03-02T12:24:44;328.17;;;308.23;;
51949;SDS011;37974;53.218;6.640;2024-03-02T12:27:10;247.35;;;232.63;;
51949;SDS011;37974;53.218;6.640;2024-03-02T12:29:37;197.05;;;185.55;;
51949;SDS011;37974;53.218;6.640;2024-03-02T12:32:05;202.18;;;190.23;;
51949;SDS011;37974;53.218;6.640;2024-03-02T12:34:31;245.07;;;230.70;;
51949;SDS011;37974;53.218;6.640;2024-03-02T12:36:57;230.05;;;216.57;;
51949;SDS011;37974;53.218;6.640;2024-03-02T12:39:23;215.45;;;203.02;;
51949;SDS011;37974;53.218;6.640;2024-03-02T12:41:49;242.95;;;228.85;;
51949;SDS011;37974;53.218;6.640;2024-03-02T12:44:16;239.30;;;225.50;;
51949;SDS011;37974;53.218;6.640;2024-03-02T12:46:43;258.35;;;243.27;;
51949;SDS011;37974;53.218;6.640;2024-03-02T12:49:11;246.35;;;231.98;;
51949;SDS011;37974;53.218;6.640;2024-03-02T12:51:39;219.43;;;206.73;;
51949;SDS011;37974;53.218;6.640;2024-03-02T12:54:06;266.13;;;250.45;;
51949;SDS011;37974;53.218;6.640;2024-03-02T12:56:33;242.90;;;228.77;;
51949;SDS011;37974;53.218;6.640;2024-03-02T12:59:00;268.73;;;252.60;;
51949;SDS011;37974;53.218;6.640;2024-03-02T13:01:26;247.45;;;233.05;;
51949;SDS011;37974;53.218;6.640;2024-03-02T13:03:52;231.48;;;218.20;;
51949;SDS011;37974;53.218;6.640;2024-03-02T13:06:20;263.83;;;248.18;;
51949;SDS011;37974;53.218;6.640;2024-03-02T13:08:46;237.70;;;223.88;;
51949;SDS011;37974;53.218;6.640;2024-03-02T13:11:13;274.02;;;258.00;;
51949;SDS011;37974;53.218;6.640;2024-03-02T13:13:39;232.45;;;218.82;;
51949;SDS011;37974;53.218;6.640;2024-03-02T13:16:09;232.38;;;218.98;;
51949;SDS011;37974;53.218;6.640;2024-03-02T13:18:35;240.05;;;225.77;;
51949;SDS011;37974;53.218;6.640;2024-03-02T13:21:03;278.05;;;261.38;;
51949;SDS011;37974;53.218;6.640;2024-03-02T13:23:29;239.45;;;225.38;;
51949;SDS011;37974;53.218;6.640;2024-03-02T13:25:56;245.43;;;230.88;;
51949;SDS011;37974;53.218;6.640;2024-03-02T13:28:23;283.55;;;266.95;;
51949;SDS011;37974;53.218;6.640;2024-03-02T13:30:50;273.15;;;256.90;;
51949;SDS011;37974;53.218;6.640;2024-03-02T13:33:16;294.92;;;277.38;;
51949;SDS011;37974;53.218;6.640;2024-03-02T13:35:47;260.30;;;245.13;;
51949;SDS011;37974;53.218;6.640;2024-03-02T13:38:16;275.70;;;259.33;;
51949;SDS011;37974;53.218;6.640;2024-03-02T13:40:42;277.23;;;260.85;;
51949;SDS011;37974;53.218;6.640;2024-03-02T13:43:08;269.35;;;253.52;;
51949;SDS011;37974;53.218;6.640;2024-03-02T13:45:34;280.55;;;263.98;;
51949;SDS011;37974;53.218;6.640;2024-03-02T13:48:01;281.52;;;264.77;;
51949;SDS011;37974;53.218;6.640;2024-03-02T13:50:28;240.05;;;225.50;;
51949;SDS011;37974;53.218;6.640;2024-03-02T13:52:55;241.10;;;226.65;;
51949;SDS011;37974;53.218;6.640;2024-03-02T13:55:21;277.80;;;261.38;;
51949;SDS011;37974;53.218;6.640;2024-03-02T13:57:47;267.90;;;252.02;;